createdAt,value
2018-04-15T00:03:54.040Z,7.95
2018-04-15T00:08:55.013Z,8.04
2018-04-15T00:13:55.993Z,7.74
2018-04-15T00:18:56.967Z,7.97
2018-04-15T00:23:57.918Z,8.05
2018-04-15T00:28:58.896Z,8.34
2018-04-15T00:34:06.732Z,8.44
2018-04-15T00:39:07.687Z,8.18
2018-04-15T00:44:08.650Z,8.24
2018-04-15T00:49:09.637Z,8.60
2018-04-15T00:54:16.601Z,8.49
2018-04-15T00:59:17.567Z,8.38
2018-04-15T01:04:18.543Z,8.30
2018-04-15T01:09:19.509Z,8.50
2018-04-15T01:14:20.478Z,8.51
2018-04-15T01:19:21.485Z,8.68
2018-04-15T01:24:22.429Z,9.03
2018-04-15T01:29:23.395Z,8.80
2018-04-15T01:34:24.372Z,9.16
2018-04-15T01:39:25.315Z,8.98
2018-04-15T01:44:26.294Z,8.93
2018-04-15T01:49:27.289Z,8.96
2018-04-15T01:54:28.265Z,8.60
2018-04-15T01:59:29.220Z,8.72
2018-04-15T02:04:30.192Z,8.84
2018-04-15T02:09:31.144Z,8.71
2018-04-15T02:14:32.124Z,8.71
2018-04-15T02:19:33.117Z,9.08
2018-04-15T02:24:34.088Z,8.77
2018-04-15T02:29:35.041Z,9.00
2018-04-15T02:34:36.037Z,8.57
2018-04-15T02:39:37.011Z,8.47
2018-04-15T02:44:37.967Z,8.51
2018-04-15T02:49:38.961Z,8.80
2018-04-15T02:54:39.931Z,8.80
2018-04-15T02:59:40.891Z,8.92
2018-04-15T03:04:41.856Z,8.87
2018-04-15T03:09:42.829Z,8.79
2018-04-15T03:14:43.780Z,8.40
2018-04-15T03:19:44.765Z,8.41
2018-04-15T03:24:45.699Z,8.50
2018-04-15T03:29:46.642Z,8.34
2018-04-15T03:34:47.627Z,8.53
2018-04-15T03:39:48.566Z,9.07
2018-04-15T03:44:49.548Z,9.07
2018-04-15T03:49:50.490Z,9.15
2018-04-15T03:54:51.444Z,8.97
2018-04-15T03:59:52.398Z,9.36
2018-04-15T04:04:53.387Z,9.43
2018-04-15T04:09:54.349Z,9.51
2018-04-15T04:14:55.304Z,9.20
2018-04-15T04:20:08.625Z,9.38
2018-04-15T04:30:44.732Z,8.63
2018-04-15T04:35:45.707Z,8.84
2018-04-15T04:40:46.643Z,9.05
2018-04-15T04:45:47.604Z,8.89
2018-04-15T04:50:48.563Z,8.75
2018-04-15T04:55:49.516Z,8.78
2018-04-15T05:00:50.488Z,8.65
2018-04-15T05:05:51.465Z,8.49
2018-04-15T05:10:52.412Z,8.79
2018-04-15T05:15:53.362Z,9.01
2018-04-15T05:20:54.331Z,9.31
2018-04-15T05:25:55.290Z,9.36
2018-04-15T05:30:56.232Z,9.33
2018-04-15T05:35:57.225Z,9.35
2018-04-15T05:40:58.184Z,9.58
2018-04-15T05:45:59.134Z,9.38
2018-04-15T05:51:00.099Z,9.82
2018-04-15T05:56:01.068Z,9.17
2018-04-15T06:01:02.019Z,9.55
2018-04-15T06:06:03.010Z,9.33
2018-04-15T06:11:03.967Z,9.14
2018-04-15T06:16:04.932Z,9.63
2018-04-15T06:21:05.911Z,9.92
2018-04-15T06:26:06.879Z,9.43
2018-04-15T06:31:07.821Z,9.70
2018-04-15T06:36:08.836Z,9.75
2018-04-15T06:41:09.806Z,10.23
2018-04-15T06:46:10.766Z,10.28
2018-04-15T06:51:11.763Z,9.73
2018-04-15T06:56:12.736Z,9.54
2018-04-15T07:01:13.713Z,10.11
2018-04-15T07:06:14.667Z,9.60
2018-04-15T07:11:15.632Z,9.72
2018-04-15T07:16:16.614Z,9.73
2018-04-15T07:21:17.564Z,10.00
2018-04-15T07:26:18.548Z,10.26
2018-04-15T07:31:19.510Z,10.12
2018-04-15T07:36:20.601Z,9.99
2018-04-15T07:41:21.589Z,9.97
2018-04-15T07:46:22.556Z,10.58
2018-04-15T07:51:23.555Z,10.84
2018-04-15T07:56:24.522Z,10.45
2018-04-15T08:01:25.492Z,10.31
2018-04-15T08:06:26.472Z,10.30
2018-04-15T08:11:27.429Z,10.28
2018-04-15T08:16:28.420Z,10.42
2018-04-15T08:21:29.388Z,10.57
2018-04-15T08:26:30.377Z,11.07
2018-04-15T08:31:31.351Z,11.05
2018-04-15T08:36:32.392Z,10.99
2018-04-15T08:41:33.363Z,10.41
2018-04-15T08:46:34.385Z,10.62
2018-04-15T08:51:35.380Z,10.93
2018-04-15T08:56:36.386Z,11.30
2018-04-15T09:01:37.393Z,11.18
2018-04-15T09:06:38.373Z,11.27
2018-04-15T09:11:39.348Z,11.23
2018-04-15T09:16:40.326Z,11.09
2018-04-15T09:21:41.299Z,10.70
2018-04-15T09:26:42.251Z,11.36
2018-04-15T09:31:43.267Z,10.84
2018-04-15T09:36:44.290Z,10.97
2018-04-15T09:41:45.322Z,11.04
2018-04-15T09:46:46.307Z,11.26
2018-04-15T09:51:47.296Z,11.14
2018-04-15T09:56:48.281Z,11.52
2018-04-15T10:01:49.262Z,11.04
2018-04-15T10:06:50.275Z,11.04
2018-04-15T10:11:51.311Z,10.81
2018-04-15T10:16:52.334Z,11.19
2018-04-15T10:21:53.633Z,11.43
2018-04-15T10:26:54.643Z,11.21
2018-04-15T10:31:55.644Z,10.85
2018-04-15T10:36:56.705Z,10.97
2018-04-15T10:41:57.724Z,10.97
2018-04-15T10:46:58.765Z,11.09
2018-04-15T10:51:59.764Z,11.05
2018-04-15T10:57:00.832Z,10.71
2018-04-15T11:02:01.808Z,11.01
2018-04-15T11:07:02.853Z,11.35
2018-04-15T11:12:03.864Z,10.62
2018-04-15T11:17:04.874Z,10.53
2018-04-15T11:22:05.926Z,10.63
2018-04-15T11:27:06.907Z,11.30
2018-04-15T11:32:07.900Z,11.23
2018-04-15T11:37:08.941Z,11.21
2018-04-15T11:42:09.915Z,10.89
2018-04-15T11:47:10.901Z,11.36
2018-04-15T11:52:11.958Z,11.14
2018-04-15T11:57:12.953Z,11.36
2018-04-15T12:02:14.034Z,11.38
2018-04-15T12:07:15.049Z,11.57
2018-04-15T12:12:16.045Z,11.50
2018-04-15T12:17:17.077Z,11.42
2018-04-15T12:22:18.052Z,10.88
2018-04-15T12:27:19.053Z,11.38
2018-04-15T12:32:20.025Z,11.26
2018-04-15T12:37:21.064Z,11.59
2018-04-15T12:42:22.096Z,11.75
2018-04-15T12:47:23.157Z,11.63
2018-04-15T12:52:24.149Z,11.75
2018-04-15T12:57:25.177Z,11.77
2018-04-15T13:02:26.198Z,11.57
2018-04-15T13:07:27.231Z,11.60
2018-04-15T13:12:28.296Z,11.57
2018-04-15T13:17:29.329Z,11.84
2018-04-15T13:22:30.347Z,11.53
2018-04-15T13:27:31.399Z,11.86
2018-04-15T13:32:32.390Z,11.82
2018-04-15T13:37:33.447Z,11.81
2018-04-15T13:42:34.471Z,11.64
2018-04-15T13:47:35.456Z,11.81
2018-04-15T13:52:36.480Z,11.61
2018-04-15T13:57:37.478Z,11.68
2018-04-15T14:02:38.488Z,11.70
2018-04-15T14:07:39.530Z,11.57
2018-04-15T14:12:40.488Z,11.66
2018-04-15T14:17:41.481Z,11.60
2018-04-15T14:22:42.431Z,11.19
2018-04-15T14:27:43.411Z,11.42
2018-04-15T14:32:45.095Z,11.37
2018-04-15T14:37:46.136Z,11.45
2018-04-15T14:42:47.137Z,12.00
2018-04-15T14:47:48.176Z,12.01
2018-04-15T14:52:49.175Z,11.90
2018-04-15T14:57:50.180Z,11.93
2018-04-15T15:02:51.184Z,11.92
2018-04-15T15:07:52.206Z,12.21
2018-04-15T15:12:53.241Z,11.95
2018-04-15T15:17:54.229Z,11.94
2018-04-15T15:22:55.240Z,12.03
2018-04-15T15:27:56.271Z,11.95
2018-04-15T15:32:57.369Z,12.16
2018-04-15T15:37:58.380Z,12.08
2018-04-15T15:42:59.389Z,11.91
2018-04-15T15:48:00.421Z,11.57
2018-04-15T15:53:01.444Z,11.66
2018-04-15T15:58:02.499Z,11.70
2018-04-15T16:03:04.185Z,11.59
2018-04-15T16:08:05.517Z,11.64
2018-04-15T16:13:06.590Z,11.41
2018-04-15T16:18:07.773Z,11.47
2018-04-15T16:23:08.838Z,11.19
2018-04-15T16:28:10.005Z,11.14
2018-04-15T16:33:11.235Z,11.11
2018-04-15T16:38:12.517Z,10.99
2018-04-15T16:43:13.793Z,10.81
2018-04-15T16:48:17.653Z,11.07
2018-04-15T16:53:22.214Z,11.23
2018-04-15T16:58:23.491Z,10.78
2018-04-15T17:03:24.518Z,10.83
2018-04-15T17:08:26.683Z,10.56
2018-04-15T17:13:28.516Z,10.83
2018-04-15T17:18:29.839Z,10.83
2018-04-15T17:23:32.038Z,10.52
2018-04-15T17:28:34.192Z,10.83
2018-04-15T17:33:35.424Z,10.74
2018-04-15T17:38:36.453Z,10.77
2018-04-15T17:43:38.740Z,10.66
2018-04-15T17:48:39.828Z,10.59
2018-04-15T17:53:40.824Z,10.59
2018-04-15T17:58:42.679Z,10.55
2018-04-15T18:03:43.729Z,10.38
2018-04-15T18:08:44.785Z,10.77
2018-04-15T18:13:45.853Z,10.95
2018-04-15T18:18:47.147Z,10.96
2018-04-15T18:23:51.147Z,10.69
2018-04-15T18:28:52.262Z,10.90
2018-04-15T18:33:54.409Z,10.75
2018-04-15T18:38:55.838Z,10.51
2018-04-15T18:43:57.110Z,10.61
2018-04-15T18:48:58.172Z,10.68
2018-04-15T18:53:59.185Z,10.39
2018-04-15T18:59:00.228Z,10.35
2018-04-15T19:04:01.390Z,10.33
2018-04-15T19:09:02.443Z,10.46
2018-04-15T19:14:03.508Z,10.27
2018-04-15T19:19:04.579Z,10.48
2018-04-15T19:24:05.658Z,10.51
2018-04-15T19:29:06.721Z,10.31
2018-04-15T19:34:07.796Z,10.37
2018-04-15T19:39:08.828Z,10.08
2018-04-15T19:44:09.865Z,10.06
2018-04-15T19:49:10.887Z,10.21
2018-04-15T19:54:11.906Z,10.24
2018-04-15T19:59:12.950Z,10.17
2018-04-15T20:04:13.916Z,10.33
2018-04-15T20:09:14.885Z,10.47
2018-04-15T20:14:15.882Z,10.57
2018-04-15T20:19:16.923Z,10.37
2018-04-15T20:24:17.981Z,10.23
2018-04-15T20:29:18.985Z,10.03
2018-04-15T20:34:19.943Z,10.32
2018-04-15T20:39:20.976Z,10.13
2018-04-15T20:44:21.940Z,10.13
2018-04-15T20:49:22.942Z,10.53
2018-04-15T20:54:23.927Z,10.54
2018-04-15T20:59:24.912Z,10.56
2018-04-15T21:04:25.889Z,10.47
2018-04-15T21:09:26.883Z,10.61
2018-04-15T21:14:27.853Z,9.95
2018-04-15T21:19:28.859Z,10.50
2018-04-15T21:24:29.860Z,10.56
2018-04-15T21:29:30.829Z,10.55
2018-04-15T21:34:31.785Z,10.67
2018-04-15T21:39:32.836Z,10.38
2018-04-15T21:44:33.825Z,10.40
2018-04-15T21:49:34.811Z,10.61
2018-04-15T21:54:35.777Z,10.52
2018-04-15T21:59:36.767Z,10.33
2018-04-15T22:04:37.715Z,10.18
2018-04-15T22:09:38.733Z,10.08
2018-04-15T22:14:39.755Z,10.41
2018-04-15T22:19:40.690Z,10.43
2018-04-15T22:24:41.676Z,10.55
2018-04-15T22:29:42.661Z,10.23
2018-04-15T22:34:43.614Z,10.67
2018-04-15T22:39:44.610Z,10.57
2018-04-15T22:44:45.780Z,10.37
2018-04-15T22:49:46.764Z,10.28
2018-04-15T22:54:47.744Z,10.34
2018-04-15T22:59:48.686Z,10.11
2018-04-15T23:04:49.663Z,10.32
2018-04-15T23:09:50.681Z,10.44
2018-04-15T23:14:51.659Z,10.10
2018-04-15T23:19:52.633Z,10.40
2018-04-15T23:24:53.769Z,10.31
2018-04-15T23:29:54.758Z,10.49
2018-04-15T23:34:55.717Z,10.23
2018-04-15T23:39:56.723Z,10.57
2018-04-15T23:44:57.676Z,10.40
2018-04-15T23:49:58.626Z,10.12
2018-04-15T23:54:59.576Z,10.47
